createdAt,value
2019-06-07T00:01:44.496Z,100772.41
2019-06-07T00:04:14.185Z,100773.25
2019-06-07T00:06:43.455Z,100766.80
2019-06-07T00:09:12.722Z,100768.76
2019-06-07T00:11:42.397Z,100766.84
2019-06-07T00:14:14.248Z,100765.16
2019-06-07T00:16:41.345Z,100769.31
2019-06-07T00:19:09.895Z,100773.17
2019-06-07T00:22:13.530Z,100771.17
2019-06-07T00:24:12.656Z,100759.20
2019-06-07T00:26:57.206Z,100760.86
2019-06-07T00:29:13.912Z,100755.03
2019-06-07T00:31:40.423Z,100745.23
2019-06-07T00:34:10.717Z,100749.99
2019-06-07T00:36:39.505Z,100736.31
2019-06-07T00:39:10.527Z,100734.88
2019-06-07T00:41:38.811Z,100720.12
2019-06-07T00:44:07.410Z,100709.53
2019-06-07T00:46:35.949Z,100716.20
2019-06-07T00:49:04.460Z,100722.05
2019-06-07T00:51:49.436Z,100712.91
2019-06-07T00:54:03.630Z,100717.05
2019-06-07T00:56:32.169Z,100722.10
2019-06-07T00:59:11.440Z,100718.73
2019-06-07T01:01:31.428Z,100724.83
2019-06-07T01:03:59.943Z,100725.70
2019-06-07T01:06:28.552Z,100737.45
2019-06-07T01:08:57.249Z,100737.45
2019-06-07T01:11:26.253Z,100736.34
2019-06-07T01:13:55.086Z,100729.66
2019-06-07T01:16:26.025Z,100719.36
2019-06-07T01:18:54.152Z,100711.28
2019-06-07T01:21:24.907Z,100704.56
2019-06-07T01:24:10.996Z,100699.81
2019-06-07T01:26:26.733Z,100699.75
2019-06-07T01:28:54.152Z,100708.09
2019-06-07T01:31:27.009Z,100702.83
2019-06-07T01:33:53.239Z,100708.88
2019-06-07T01:36:24.410Z,100709.16
2019-06-07T01:38:52.350Z,100706.91
2019-06-07T01:41:23.613Z,100714.20
2019-06-07T01:43:51.376Z,100713.65
2019-06-07T01:46:20.770Z,100714.80
2019-06-07T01:48:50.126Z,100715.08
2019-06-07T01:51:19.994Z,100718.09
2019-06-07T01:53:48.588Z,100714.45
2019-06-07T01:56:18.545Z,100712.23
2019-06-07T01:58:47.635Z,100711.14
2019-06-07T02:01:19.174Z,100703.89
2019-06-07T02:03:46.673Z,100706.94
2019-06-07T02:06:15.198Z,100712.45
2019-06-07T02:08:43.714Z,100721.34
2019-06-07T02:11:12.232Z,100719.95
2019-06-07T02:13:40.778Z,100711.03
2019-06-07T02:16:09.301Z,100710.20
2019-06-07T02:18:58.825Z,100712.70
2019-06-07T02:21:08.268Z,100716.85
2019-06-07T02:23:36.931Z,100704.59
2019-06-07T02:26:05.545Z,100712.12
2019-06-07T02:28:44.893Z,100702.03
2019-06-07T02:31:04.869Z,100706.73
2019-06-07T02:33:39.204Z,100700.61
2019-06-07T02:36:04.124Z,100697.02
2019-06-07T02:38:37.290Z,100695.59
2019-06-07T02:41:03.245Z,100694.73
2019-06-07T02:43:35.148Z,100696.41
2019-06-07T02:46:24.533Z,100693.24
2019-06-07T02:48:39.469Z,100698.53
2019-06-07T02:51:03.474Z,100692.41
2019-06-07T02:53:39.523Z,100690.39
2019-06-07T02:58:37.931Z,100688.94
2019-06-07T03:01:09.045Z,100692.03
2019-06-07T03:03:39.587Z,100695.54
2019-06-07T03:06:04.737Z,100691.95
2019-06-07T03:08:36.733Z,100684.41
2019-06-07T03:11:06.180Z,100691.64
2019-06-07T03:13:37.511Z,100693.80
2019-06-07T03:16:08.962Z,100689.58
2019-06-07T03:19:04.693Z,100691.25
2019-06-07T03:21:36.418Z,100683.45
2019-06-07T03:24:05.274Z,100682.90
2019-06-07T03:26:43.446Z,100678.45
2019-06-07T03:29:04.424Z,100677.61
2019-06-07T03:31:41.539Z,100681.51
2019-06-07T03:34:03.618Z,100677.30
2019-06-07T03:36:32.780Z,100676.55
2019-06-07T03:39:04.902Z,100669.87
2019-06-07T03:41:43.751Z,100669.66
2019-06-07T03:44:04.048Z,100667.39
2019-06-07T03:46:37.532Z,100662.11
2019-06-07T03:49:03.225Z,100660.44
2019-06-07T03:51:32.888Z,100659.33
2019-06-07T03:54:02.259Z,100669.66
2019-06-07T03:56:31.883Z,100670.25
2019-06-07T03:59:01.364Z,100676.72
2019-06-07T04:01:30.319Z,100682.63
2019-06-07T04:04:00.352Z,100681.00
2019-06-07T04:06:32.551Z,100682.42
2019-06-07T04:08:59.397Z,100678.24
2019-06-07T04:11:27.906Z,100677.37
2019-06-07T04:13:56.447Z,100668.25
2019-06-07T04:16:24.961Z,100660.45
2019-06-07T04:18:53.480Z,100662.97
2019-06-07T04:21:22.008Z,100654.61
2019-06-07T04:23:50.545Z,100652.14
2019-06-07T04:26:19.056Z,100646.63
2019-06-07T04:29:31.497Z,100642.47
2019-06-07T04:31:18.210Z,100641.66
2019-06-07T04:33:47.246Z,100635.83
2019-06-07T04:36:16.466Z,100628.63
2019-06-07T04:38:46.690Z,100637.03
2019-06-07T04:41:16.291Z,100635.95
2019-06-07T04:43:46.733Z,100628.99
2019-06-07T04:46:18.117Z,100635.47
2019-06-07T04:48:49.481Z,100634.68
2019-06-07T04:51:22.125Z,100633.27
2019-06-07T04:53:50.946Z,100635.25
2019-06-07T04:56:19.466Z,100625.78
2019-06-07T04:58:47.977Z,100619.06
2019-06-07T05:01:27.313Z,100615.45
2019-06-07T05:03:47.155Z,100616.00
2019-06-07T05:06:15.724Z,100618.53
2019-06-07T05:08:44.240Z,100613.77
2019-06-07T05:11:12.864Z,100612.66
2019-06-07T05:13:44.010Z,100609.06
2019-06-07T05:16:11.828Z,100609.05
2019-06-07T05:18:43.141Z,100604.04
2019-06-07T05:21:10.958Z,100595.63
2019-06-07T05:24:05.754Z,100593.05
2019-06-07T05:26:09.939Z,100600.56
2019-06-07T05:28:42.288Z,100593.84
2019-06-07T05:31:09.200Z,100589.00
2019-06-07T05:33:38.930Z,100589.78
2019-06-07T05:36:08.235Z,100586.17
2019-06-07T05:38:41.139Z,100593.37
2019-06-07T05:41:08.194Z,100591.38
2019-06-07T05:43:40.993Z,100591.65
2019-06-07T05:46:07.546Z,100593.54
2019-06-07T05:48:36.660Z,100587.61
2019-06-07T05:51:05.498Z,100593.08
2019-06-07T05:53:34.719Z,100594.44
2019-06-07T05:56:03.775Z,100591.64
2019-06-07T05:58:32.799Z,100588.40
2019-06-07T06:01:41.379Z,100585.70
2019-06-07T06:03:31.930Z,100580.61
2019-06-07T06:06:00.532Z,100583.89
2019-06-07T06:08:29.159Z,100585.36
2019-06-07T06:10:57.693Z,100578.60
2019-06-07T06:13:26.203Z,100574.86
2019-06-07T06:16:01.741Z,100571.54
2019-06-07T06:18:25.179Z,100577.05
2019-06-07T06:21:15.698Z,100571.75
2019-06-07T06:23:24.270Z,100563.25
2019-06-07T06:25:56.909Z,100565.18
2019-06-07T06:28:23.309Z,100560.64
2019-06-07T06:30:51.878Z,100563.52
2019-06-07T06:33:33.602Z,100554.80
2019-06-07T06:35:51.137Z,100555.05
2019-06-07T06:38:19.865Z,100551.98
2019-06-07T06:40:52.714Z,100554.94
2019-06-07T06:43:18.908Z,100543.50
2019-06-07T06:45:50.498Z,100540.06
2019-06-07T06:48:18.013Z,100531.27
2019-06-07T06:50:50.339Z,100530.55
2019-06-07T06:53:17.102Z,100530.41
2019-06-07T06:55:48.431Z,100528.16
2019-06-07T06:58:16.403Z,100521.64
2019-06-07T07:00:56.973Z,100521.00
2019-06-07T07:05:54.241Z,100519.98
2019-06-07T07:08:21.105Z,100526.61
2019-06-07T07:10:53.226Z,100531.91
2019-06-07T07:13:20.530Z,100526.86
2019-06-07T07:15:55.258Z,100530.99
2019-06-07T07:18:19.609Z,100529.18
2019-06-07T07:20:50.425Z,100525.61
2019-06-07T07:23:18.581Z,100533.13
2019-06-07T07:25:55.536Z,100524.86
2019-06-07T07:28:17.868Z,100514.11
2019-06-07T07:30:50.001Z,100509.77
2019-06-07T07:33:20.539Z,100503.03
2019-06-07T07:36:11.045Z,100506.89
2019-06-07T07:38:20.008Z,100512.80
2019-06-07T07:41:01.555Z,100506.81
2019-06-07T07:43:19.079Z,100514.24
2019-06-07T07:45:53.310Z,100502.55
2019-06-07T07:48:18.735Z,100499.92
2019-06-07T07:50:49.644Z,100493.42
2019-06-07T07:53:17.948Z,100481.89
2019-06-07T07:55:50.381Z,100478.44
2019-06-07T07:58:17.169Z,100470.17
2019-06-07T08:00:53.000Z,100469.19
2019-06-07T08:03:16.352Z,100472.92
2019-06-07T08:05:45.699Z,100459.55
2019-06-07T08:08:15.342Z,100458.53
2019-06-07T08:10:43.862Z,100456.72
2019-06-07T08:13:24.927Z,100461.42
2019-06-07T08:15:43.179Z,100445.09
2019-06-07T08:18:11.717Z,100432.83
2019-06-07T08:21:01.420Z,100422.72
2019-06-07T08:23:11.071Z,100425.38
2019-06-07T08:25:40.011Z,100427.14
2019-06-07T08:28:08.739Z,100421.98
2019-06-07T08:31:00.071Z,100412.38
2019-06-07T08:38:25.092Z,100385.38
2019-06-07T08:40:39.208Z,100385.38
2019-06-07T08:43:19.922Z,100392.87
2019-06-07T08:45:38.464Z,100375.33
2019-06-07T08:48:26.683Z,100376.09
2019-06-07T08:50:37.700Z,100367.91
2019-06-07T08:53:12.201Z,100359.73
2019-06-07T08:55:36.912Z,100356.77
2019-06-07T08:58:08.426Z,100347.59
2019-06-07T09:00:47.034Z,100349.27
2019-06-07T09:03:07.562Z,100342.02
2019-06-07T09:05:36.434Z,100342.42
2019-06-07T09:08:28.224Z,100341.17
2019-06-07T09:10:35.590Z,100320.80
2019-06-07T09:13:10.950Z,100320.68
2019-06-07T09:15:35.211Z,100317.74
2019-06-07T09:20:43.748Z,100300.00
2019-06-07T09:23:17.161Z,100301.11
2019-06-07T09:25:56.584Z,100304.08
2019-06-07T09:28:19.498Z,100300.46
2019-06-07T09:30:44.871Z,100290.75
2019-06-07T09:33:13.671Z,100300.13
2019-06-07T09:35:42.654Z,100298.42
2019-06-07T09:38:24.391Z,100300.34
2019-06-07T09:40:42.090Z,100300.46
2019-06-07T09:45:41.447Z,100287.30
2019-06-07T09:48:15.880Z,100285.38
2019-06-07T09:50:40.709Z,100287.73
2019-06-07T09:53:20.973Z,100279.66
2019-06-07T09:55:40.261Z,100282.30
2019-06-07T09:58:48.703Z,100273.27
2019-06-07T10:00:41.993Z,100269.18
2019-06-07T10:03:19.990Z,100263.02
2019-06-07T10:05:40.345Z,100263.17
2019-06-07T10:08:25.755Z,100255.44
2019-06-07T10:10:42.742Z,100246.91
2019-06-07T10:13:10.490Z,100243.67
2019-06-07T10:15:39.400Z,100238.47
2019-06-07T10:18:09.196Z,100230.77
2019-06-07T10:20:38.152Z,100221.28
2019-06-07T10:23:08.075Z,100218.81
2019-06-07T10:25:36.891Z,100213.46
2019-06-07T10:28:06.082Z,100220.30
2019-06-07T10:30:34.978Z,100214.56
2019-06-07T10:33:04.888Z,100212.03
2019-06-07T10:35:34.159Z,100204.55
2019-06-07T10:38:02.939Z,100202.80
2019-06-07T10:40:31.449Z,100192.91
2019-06-07T10:43:01.193Z,100187.62
2019-06-07T10:45:30.058Z,100183.63
2019-06-07T10:47:58.686Z,100177.95
2019-06-07T10:50:27.309Z,100169.41
2019-06-07T10:52:56.137Z,100166.52
2019-06-07T10:55:25.126Z,100165.41
2019-06-07T10:57:53.803Z,100162.51
2019-06-07T11:00:22.757Z,100183.73
2019-06-07T11:02:54.915Z,100189.66
2019-06-07T11:05:22.144Z,100182.56
2019-06-07T11:07:50.994Z,100180.07
2019-06-07T11:10:20.589Z,100171.81
2019-06-07T11:12:49.287Z,100173.13
2019-06-07T11:15:18.074Z,100180.69
2019-06-07T11:17:46.700Z,100175.44
2019-06-07T11:20:15.987Z,100175.63
2019-06-07T11:22:44.604Z,100165.00
2019-06-07T11:25:14.734Z,100157.60
2019-06-07T11:27:43.685Z,100143.61
2019-06-07T11:30:14.559Z,100129.98
2019-06-07T11:32:43.228Z,100134.68
2019-06-07T11:35:15.485Z,100128.13
2019-06-07T11:37:44.187Z,100115.03
2019-06-07T11:40:35.722Z,100118.67
2019-06-07T11:42:43.464Z,100113.17
2019-06-07T11:45:12.912Z,100100.70
2019-06-07T11:47:42.829Z,100096.73
2019-06-07T11:50:11.962Z,100089.36
2019-06-07T11:52:40.643Z,100081.23
2019-06-07T11:55:11.574Z,100072.21
2019-06-07T11:57:41.066Z,100068.64
2019-06-07T12:00:13.954Z,100061.67
2019-06-07T12:02:42.888Z,100049.55
2019-06-07T12:05:16.213Z,100052.86
2019-06-07T12:07:42.364Z,100044.05
2019-06-07T12:10:14.776Z,100043.13
2019-06-07T12:12:43.585Z,100038.61
2019-06-07T12:15:13.208Z,100038.34
2019-06-07T12:17:41.815Z,100032.05
2019-06-07T12:20:12.863Z,100023.42
2019-06-07T12:22:41.360Z,100022.38
2019-06-07T12:25:10.542Z,100027.33
2019-06-07T12:27:39.385Z,100019.59
2019-06-07T12:30:12.997Z,100020.75
2019-06-07T12:32:39.585Z,100014.34
2019-06-07T12:35:08.553Z,99997.48
2019-06-07T12:37:44.520Z,99998.64
2019-06-07T12:40:09.134Z,100002.30
2019-06-07T12:42:37.833Z,99985.84
2019-06-07T12:45:07.129Z,99984.41
2019-06-07T12:47:35.787Z,99979.63
2019-06-07T12:50:04.893Z,99973.34
2019-06-07T12:52:33.711Z,99968.91
2019-06-07T12:55:03.469Z,99983.86
2019-06-07T12:57:32.072Z,99976.13
2019-06-07T13:00:00.619Z,99970.98
2019-06-07T13:02:29.275Z,99963.69
2019-06-07T13:04:58.006Z,99957.59
2019-06-07T13:07:27.968Z,99957.13
2019-06-07T13:09:56.753Z,99957.52
2019-06-07T13:12:25.203Z,99946.30
2019-06-07T13:14:53.843Z,99939.23
2019-06-07T13:17:22.417Z,99958.21
2019-06-07T13:19:50.942Z,99939.27
2019-06-07T13:22:20.392Z,99936.89
2019-06-07T13:24:49.232Z,99936.83
2019-06-07T13:27:18.282Z,99929.86
2019-06-07T13:29:46.867Z,99934.21
2019-06-07T13:32:15.720Z,99934.21
2019-06-07T13:34:44.602Z,99939.86
2019-06-07T13:37:14.039Z,99940.99
2019-06-07T13:39:42.577Z,99945.11
2019-06-07T13:42:11.213Z,99931.13
2019-06-07T13:44:39.831Z,99936.27
2019-06-07T13:47:08.365Z,99931.14
2019-06-07T13:49:36.904Z,99931.19
2019-06-07T13:52:05.532Z,99924.63
2019-06-07T13:54:34.168Z,99930.23
2019-06-07T13:57:03.341Z,99932.16
2019-06-07T13:59:32.314Z,99929.27
2019-06-07T14:02:00.907Z,99923.09
2019-06-07T14:04:29.416Z,99914.54
2019-06-07T14:06:58.054Z,99911.84
2019-06-07T14:09:27.582Z,99909.89
2019-06-07T14:11:56.474Z,99911.52
2019-06-07T14:14:26.986Z,99905.98
2019-06-07T14:16:55.925Z,99900.54
2019-06-07T14:19:24.601Z,99902.44
2019-06-07T14:21:53.207Z,99903.13
2019-06-07T14:24:22.925Z,99903.21
2019-06-07T14:27:06.825Z,99915.01
2019-06-07T14:29:36.296Z,99910.88
2019-06-07T14:32:05.387Z,99922.26
2019-06-07T14:34:34.600Z,99911.11
2019-06-07T14:37:03.667Z,99909.05
2019-06-07T14:39:33.509Z,99915.69
2019-06-07T14:42:09.155Z,99912.05
2019-06-07T14:44:33.956Z,99894.87
2019-06-07T14:47:03.151Z,99907.69
2019-06-07T14:49:32.761Z,99907.39
2019-06-07T14:52:01.529Z,99903.77
2019-06-07T14:54:32.166Z,99900.03
2019-06-07T14:57:03.309Z,99908.94
2019-06-07T14:59:32.792Z,99903.13
2019-06-07T15:02:01.834Z,99897.02
2019-06-07T15:04:30.760Z,99904.44
2019-06-07T15:06:59.833Z,99906.89
2019-06-07T15:09:29.092Z,99896.50
2019-06-07T15:11:57.857Z,99891.83
2019-06-07T15:14:27.286Z,99889.92
2019-06-07T15:16:56.258Z,99887.24
2019-06-07T15:19:25.054Z,99895.62
2019-06-07T15:21:53.787Z,99908.98
2019-06-07T15:24:22.496Z,99894.49
2019-06-07T15:26:51.038Z,99905.48
2019-06-07T15:29:19.634Z,99897.25
2019-06-07T15:31:48.140Z,99888.91
2019-06-07T15:34:16.659Z,99885.56
2019-06-07T15:36:45.353Z,99885.91
2019-06-07T15:39:14.073Z,99879.18
2019-06-07T15:41:42.894Z,99881.80
2019-06-07T15:44:11.473Z,99884.84
2019-06-07T15:46:40.446Z,99879.90
2019-06-07T15:49:09.165Z,99882.38
2019-06-07T15:51:38.666Z,99896.99
2019-06-07T15:54:07.625Z,99892.63
2019-06-07T15:56:36.999Z,99901.05
2019-06-07T15:59:05.832Z,99911.73
2019-06-07T16:01:35.567Z,99909.03
2019-06-07T16:04:04.403Z,99903.06
2019-06-07T16:06:34.290Z,99901.07
2019-06-07T16:09:05.915Z,99907.66
2019-06-07T16:11:34.715Z,99920.92
2019-06-07T16:14:06.230Z,99931.49
2019-06-07T16:16:35.034Z,99940.61
2019-06-07T16:19:04.237Z,99976.29
2019-06-07T16:21:33.266Z,100009.56
2019-06-07T16:24:02.115Z,100066.74
2019-06-07T16:26:30.972Z,100069.53
2019-06-07T16:28:59.508Z,100087.52
2019-06-07T16:31:28.067Z,100124.41
2019-06-07T16:33:56.610Z,100116.09
2019-06-07T16:36:25.255Z,100043.17
2019-06-07T16:38:53.791Z,100081.58
2019-06-07T16:41:22.445Z,100085.25
2019-06-07T16:43:51.080Z,100092.50
2019-06-07T16:46:21.210Z,100098.37
2019-06-07T16:48:49.747Z,100110.06
2019-06-07T16:51:18.374Z,100113.94
2019-06-07T16:53:46.898Z,100142.87
2019-06-07T16:56:15.477Z,100138.75
2019-06-07T16:58:44.446Z,100147.20
2019-06-07T17:01:13.262Z,100174.12
2019-06-07T17:03:41.930Z,100166.58
2019-06-07T17:06:10.545Z,100173.13
2019-06-07T17:08:40.156Z,100168.15
2019-06-07T17:11:08.920Z,100162.84
2019-06-07T17:13:38.176Z,100180.62
2019-06-07T17:16:06.865Z,100182.92
2019-06-07T17:18:37.166Z,100197.84
2019-06-07T17:21:06.048Z,100179.30
2019-06-07T17:23:34.681Z,100187.52
2019-06-07T17:26:03.437Z,100192.25
2019-06-07T17:28:32.040Z,100196.66
2019-06-07T17:31:00.681Z,100198.80
2019-06-07T17:33:29.218Z,100206.34
2019-06-07T17:35:57.865Z,100197.89
2019-06-07T17:38:26.435Z,100199.16
2019-06-07T17:40:55.034Z,100208.28
2019-06-07T17:43:23.574Z,100210.23
2019-06-07T17:45:52.096Z,100224.84
2019-06-07T17:48:23.898Z,100218.61
2019-06-07T17:50:52.796Z,100238.06
2019-06-07T17:53:21.617Z,100245.23
2019-06-07T17:55:50.406Z,100251.75
2019-06-07T17:58:19.195Z,100253.73
2019-06-07T18:00:50.850Z,100246.94
2019-06-07T18:03:20.480Z,100245.38
2019-06-07T18:05:49.380Z,100240.06
2019-06-07T18:08:18.126Z,100253.13
2019-06-07T18:10:47.829Z,100249.98
2019-06-07T18:13:16.744Z,100253.73
2019-06-07T18:15:46.566Z,100263.96
2019-06-07T18:18:17.111Z,100254.66
2019-06-07T18:20:47.009Z,100256.40
2019-06-07T18:23:16.058Z,100242.78
2019-06-07T18:25:44.800Z,100243.45
2019-06-07T18:28:13.582Z,100236.84
2019-06-07T18:30:42.097Z,100223.64
2019-06-07T18:33:10.744Z,100216.80
2019-06-07T18:35:39.454Z,100189.62
2019-06-07T18:38:10.755Z,100185.81
2019-06-07T18:40:38.788Z,100203.84
2019-06-07T18:43:07.336Z,100199.78
2019-06-07T18:45:35.967Z,100191.50
2019-06-07T18:48:04.643Z,100182.39
2019-06-07T18:50:33.650Z,100198.47
2019-06-07T18:53:02.377Z,100193.55
2019-06-07T18:55:30.895Z,100198.33
2019-06-07T18:57:59.449Z,100186.55
2019-06-07T19:00:30.412Z,100144.14
2019-06-07T19:02:58.940Z,100170.16
2019-06-07T19:05:27.696Z,100201.38
2019-06-07T19:07:56.765Z,100220.16
2019-06-07T19:10:25.665Z,100217.53
2019-06-07T19:12:55.235Z,100206.52
2019-06-07T19:15:24.259Z,100224.72
2019-06-07T19:17:54.004Z,100221.19
2019-06-07T19:20:23.261Z,100220.36
2019-06-07T19:22:52.306Z,100183.89
2019-06-07T19:25:20.932Z,100186.70
2019-06-07T19:27:50.623Z,100170.58
2019-06-07T19:30:20.625Z,100175.52
2019-06-07T19:32:50.147Z,100176.77
2019-06-07T19:35:19.850Z,100157.71
2019-06-07T19:37:48.485Z,100159.20
2019-06-07T19:40:19.105Z,100148.92
2019-06-07T19:42:48.160Z,100180.30
2019-06-07T19:45:29.544Z,100178.12
2019-06-07T19:47:47.733Z,100197.81
2019-06-07T19:50:18.337Z,100185.20
2019-06-07T19:52:47.184Z,100203.30
2019-06-07T19:55:15.966Z,100195.25
2019-06-07T19:57:44.694Z,100189.42
2019-06-07T20:00:14.564Z,100201.73
2019-06-07T20:02:43.520Z,100201.45
2019-06-07T20:05:12.673Z,100208.34
2019-06-07T20:07:41.525Z,100225.94
2019-06-07T20:10:10.848Z,100227.78
2019-06-07T20:12:39.529Z,100207.13
2019-06-07T20:15:27.202Z,100214.41
2019-06-07T20:17:39.886Z,100234.95
2019-06-07T20:20:11.492Z,100231.61
2019-06-07T20:22:40.840Z,100245.83
2019-06-07T20:25:10.832Z,100256.42
2019-06-07T20:27:39.557Z,100253.45
2019-06-07T20:30:08.680Z,100243.08
2019-06-07T20:32:37.355Z,100255.98
2019-06-07T20:35:08.180Z,100235.65
2019-06-07T20:37:37.359Z,100254.70
2019-06-07T20:40:22.345Z,100261.27
2019-06-07T20:42:37.997Z,100246.37
2019-06-07T20:45:08.161Z,100246.80
2019-06-07T20:47:37.027Z,100234.43
2019-06-07T20:50:06.313Z,100243.12
2019-06-07T20:52:34.966Z,100233.61
2019-06-07T20:55:04.895Z,100211.69
2019-06-07T20:57:33.509Z,100219.87
2019-06-07T21:00:10.557Z,100225.51
2019-06-07T21:02:33.006Z,100225.02
2019-06-07T21:05:01.678Z,100230.41
2019-06-07T21:07:30.814Z,100234.88
2019-06-07T21:09:59.531Z,100244.03
2019-06-07T21:12:28.197Z,100235.65
2019-06-07T21:14:56.711Z,100244.63
2019-06-07T21:17:25.327Z,100241.70
2019-06-07T21:19:53.899Z,100235.30
2019-06-07T21:22:22.415Z,100246.20
2019-06-07T21:24:50.942Z,100226.09
2019-06-07T21:27:19.779Z,100219.73
2019-06-07T21:29:48.412Z,100229.85
2019-06-07T21:32:16.984Z,100235.88
2019-06-07T21:34:45.528Z,100245.09
2019-06-07T21:37:14.123Z,100252.42
2019-06-07T21:39:42.801Z,100246.05
2019-06-07T21:42:12.411Z,100237.61
2019-06-07T21:44:41.154Z,100227.77
2019-06-07T21:47:10.603Z,100220.36
2019-06-07T21:49:39.617Z,100217.83
2019-06-07T21:52:08.736Z,100213.66
2019-06-07T21:54:37.402Z,100227.97
2019-06-07T21:57:06.909Z,100246.70
2019-06-07T21:59:35.677Z,100242.55
2019-06-07T22:02:05.383Z,100249.88
2019-06-07T22:04:36.373Z,100240.95
2019-06-07T22:07:05.345Z,100241.66
2019-06-07T22:09:37.166Z,100245.41
2019-06-07T22:12:06.044Z,100267.13
2019-06-07T22:14:34.702Z,100256.09
2019-06-07T22:17:04.081Z,100262.59
2019-06-07T22:19:48.099Z,100273.20
2019-06-07T22:22:18.097Z,100246.25
2019-06-07T22:24:47.232Z,100257.98
2019-06-07T22:27:15.881Z,100255.05
2019-06-07T22:29:44.414Z,100265.34
2019-06-07T22:32:13.097Z,100252.19
2019-06-07T22:34:41.597Z,100262.23
2019-06-07T22:37:11.300Z,100253.84
2019-06-07T22:39:39.979Z,100239.92
2019-06-07T22:42:08.848Z,100240.63
2019-06-07T22:44:40.031Z,100250.97
2019-06-07T22:47:08.216Z,100241.84
2019-06-07T22:49:36.787Z,100252.75
2019-06-07T22:52:17.343Z,100238.53
2019-06-07T22:54:45.750Z,100238.45
2019-06-07T22:57:20.092Z,100253.86
2019-06-07T22:59:48.826Z,100255.27
2019-06-07T23:02:18.726Z,100233.16
2019-06-07T23:04:47.586Z,100230.71
2019-06-07T23:07:17.132Z,100225.86
2019-06-07T23:09:45.844Z,100237.11
2019-06-07T23:12:15.293Z,100252.75
2019-06-07T23:14:43.993Z,100267.00
2019-06-07T23:17:13.868Z,100257.55
2019-06-07T23:19:42.546Z,100252.00
2019-06-07T23:22:11.887Z,100256.89
2019-06-07T23:24:40.690Z,100256.27
2019-06-07T23:27:10.948Z,100273.45
2019-06-07T23:29:39.950Z,100252.93
2019-06-07T23:32:08.482Z,100256.27
2019-06-07T23:34:37.021Z,100256.02
2019-06-07T23:37:05.655Z,100260.78
2019-06-07T23:39:34.327Z,100250.91
2019-06-07T23:42:03.054Z,100260.38
2019-06-07T23:44:31.632Z,100260.13
2019-06-07T23:47:10.856Z,100270.19
2019-06-07T23:49:30.996Z,100253.30
2019-06-07T23:51:59.555Z,100272.13
2019-06-07T23:54:28.102Z,100259.78
2019-06-07T23:56:56.749Z,100271.67
2019-06-07T23:59:25.298Z,100275.14
